createdAt,value
2018-05-23T00:01:11.666Z,14.77
2018-05-23T00:03:39.956Z,12.63
2018-05-23T00:06:08.316Z,13.00
2018-05-23T00:08:36.599Z,12.23
2018-05-23T00:11:04.887Z,16.67
2018-05-23T00:13:33.207Z,13.07
2018-05-23T00:16:01.496Z,16.80
2018-05-23T00:18:30.542Z,11.67
2018-05-23T00:20:58.871Z,18.73
2018-05-23T00:23:27.923Z,16.40
2018-05-23T00:25:56.214Z,17.53
2018-05-23T00:28:24.526Z,14.00
2018-05-23T00:30:53.585Z,13.80
2018-05-23T00:33:21.886Z,12.53
2018-05-23T00:48:40.428Z,10.87
2018-05-23T00:51:09.482Z,12.70
2018-05-23T00:53:37.762Z,11.60
2018-05-23T00:56:06.063Z,10.70
2018-05-23T00:58:34.355Z,11.30
2018-05-23T01:01:03.431Z,13.30
2018-05-23T01:03:31.714Z,15.27
2018-05-23T01:06:00.035Z,13.90
2018-05-23T01:08:28.319Z,13.27
2018-05-23T01:10:56.606Z,16.63
2018-05-23T01:13:24.934Z,14.27
2018-05-23T01:15:53.224Z,14.53
2018-05-23T01:18:21.510Z,13.80
2018-05-23T01:20:49.891Z,15.40
2018-05-23T01:23:18.183Z,15.97
2018-05-23T01:25:46.470Z,15.00
2018-05-23T01:28:14.799Z,15.40
2018-05-23T01:30:43.082Z,14.87
2018-05-23T01:33:11.380Z,14.80
2018-05-23T01:35:39.706Z,16.87
2018-05-23T01:38:07.998Z,18.30
2018-05-23T01:40:36.286Z,20.93
2018-05-23T01:43:05.392Z,19.80
2018-05-23T01:45:34.455Z,21.10
2018-05-23T01:48:02.756Z,23.10
2018-05-23T01:50:31.883Z,25.23
2018-05-23T01:53:00.179Z,21.60
2018-05-23T01:55:28.527Z,21.93
2018-05-23T01:57:56.823Z,21.80
2018-05-23T02:00:25.119Z,23.53
2018-05-23T02:02:53.412Z,24.10
2018-05-23T02:05:21.733Z,22.80
2018-05-23T02:07:50.035Z,25.93
2018-05-23T02:10:25.227Z,24.90
2018-05-23T02:12:54.274Z,24.53
2018-05-23T02:15:22.581Z,26.57
2018-05-23T02:17:50.875Z,25.07
2018-05-23T02:20:19.199Z,23.03
2018-05-23T02:22:47.542Z,26.47
2018-05-23T02:25:15.839Z,26.97
2018-05-23T02:27:44.127Z,24.63
2018-05-23T02:30:12.619Z,21.00
2018-05-23T02:32:40.822Z,25.93
2018-05-23T02:35:09.115Z,22.20
2018-05-23T02:37:37.432Z,23.47
2018-05-23T02:40:05.729Z,31.97
2018-05-23T02:42:34.069Z,24.57
2018-05-23T02:45:02.368Z,25.70
2018-05-23T02:47:30.663Z,29.17
2018-05-23T02:49:58.990Z,24.20
2018-05-23T02:52:27.278Z,27.27
2018-05-23T02:54:55.573Z,26.70
2018-05-23T02:57:23.906Z,31.60
2018-05-23T02:59:52.201Z,26.53
2018-05-23T03:02:21.254Z,31.20
2018-05-23T03:04:49.570Z,26.47
2018-05-23T03:07:18.642Z,26.73
2018-05-23T03:09:46.930Z,32.33
2018-05-23T03:12:15.263Z,31.60
2018-05-23T03:14:43.562Z,24.23
2018-05-23T03:17:11.854Z,23.47
2018-05-23T03:19:40.197Z,20.10
2018-05-23T03:22:08.540Z,20.70
2018-05-23T03:24:36.778Z,30.13
2018-05-23T03:27:05.119Z,23.53
2018-05-23T03:29:33.410Z,26.90
2018-05-23T03:32:01.703Z,25.63
2018-05-23T03:34:30.019Z,29.63
2018-05-23T03:36:58.307Z,31.00
2018-05-23T03:39:26.667Z,22.10
2018-05-23T03:41:54.946Z,23.40
2018-05-23T03:44:23.229Z,24.23
2018-05-23T03:46:52.315Z,24.07
2018-05-23T03:49:20.602Z,22.50
2018-05-23T03:54:52.027Z,21.83
2018-05-23T03:57:20.256Z,21.17
2018-05-23T04:00:06.107Z,21.47
2018-05-23T04:02:51.892Z,21.13
2018-05-23T04:05:37.715Z,24.30
2018-05-23T04:08:06.703Z,18.83
2018-05-23T04:10:34.931Z,22.30
2018-05-23T04:13:03.198Z,17.83
2018-05-23T04:15:31.556Z,20.83
2018-05-23T04:18:00.427Z,20.77
2018-05-23T04:20:28.707Z,19.57
2018-05-23T04:22:56.935Z,19.30
2018-05-23T04:25:25.163Z,18.00
2018-05-23T04:27:53.436Z,20.20
2018-05-23T04:30:22.414Z,19.40
2018-05-23T04:32:50.642Z,24.47
2018-05-23T04:35:18.899Z,23.00
2018-05-23T04:37:47.130Z,17.53
2018-05-23T04:40:15.356Z,15.97
2018-05-23T04:42:43.604Z,21.77
2018-05-23T04:45:11.836Z,17.57
2018-05-23T04:47:40.072Z,16.80
2018-05-23T04:50:08.331Z,16.63
2018-05-23T04:52:37.335Z,16.50
2018-05-23T04:55:05.559Z,17.40
2018-05-23T04:57:33.808Z,15.03
2018-05-23T05:00:02.051Z,18.00
2018-05-23T05:02:31.027Z,16.17
2018-05-23T05:04:59.288Z,13.20
2018-05-23T05:07:27.524Z,16.50
2018-05-23T05:09:55.767Z,17.50
2018-05-23T05:12:24.017Z,16.57
2018-05-23T05:14:52.232Z,20.03
2018-05-23T05:17:20.454Z,14.27
2018-05-23T05:19:48.728Z,17.20
2018-05-23T05:22:16.951Z,13.90
2018-05-23T05:24:45.952Z,13.57
2018-05-23T05:27:14.186Z,17.33
2018-05-23T05:29:42.421Z,18.90
2018-05-23T05:32:10.683Z,17.03
2018-05-23T05:34:38.916Z,17.53
2018-05-23T05:37:07.135Z,14.67
2018-05-23T05:39:35.397Z,11.50
2018-05-23T05:42:03.619Z,14.27
2018-05-23T05:44:31.881Z,14.77
2018-05-23T05:47:00.945Z,14.17
2018-05-23T05:49:29.116Z,16.13
2018-05-23T05:51:57.347Z,16.03
2018-05-23T05:54:25.606Z,12.67
2018-05-23T05:56:53.835Z,13.17
2018-05-23T05:59:22.831Z,16.77
2018-05-23T06:01:51.322Z,12.37
2018-05-23T06:04:19.575Z,14.33
2018-05-23T06:06:47.852Z,10.90
2018-05-23T06:09:16.162Z,12.27
2018-05-23T06:11:44.798Z,11.83
2018-05-23T06:14:13.080Z,14.20
2018-05-23T06:16:41.577Z,9.17
2018-05-23T06:19:09.865Z,12.40
2018-05-23T06:21:38.195Z,12.00
2018-05-23T06:24:06.504Z,12.10
2018-05-23T06:26:34.803Z,11.63
2018-05-23T06:29:03.903Z,12.00
2018-05-23T06:31:32.947Z,11.00
2018-05-23T06:34:01.217Z,13.27
2018-05-23T06:36:29.531Z,13.27
2018-05-23T06:38:57.896Z,12.50
2018-05-23T06:41:26.116Z,12.43
2018-05-23T06:43:54.339Z,12.40
2018-05-23T06:46:22.598Z,13.67
2018-05-23T06:48:50.828Z,15.30
2018-05-23T06:51:19.059Z,15.00
2018-05-23T06:53:47.284Z,12.30
2018-05-23T06:56:16.276Z,14.00
2018-05-23T06:58:44.508Z,16.83
2018-05-23T07:01:12.931Z,15.23
2018-05-23T07:03:41.919Z,10.97
2018-05-23T07:06:10.142Z,13.87
2018-05-23T07:08:38.399Z,12.17
2018-05-23T07:11:06.709Z,14.30
2018-05-23T07:13:35.649Z,15.93
2018-05-23T07:16:03.907Z,11.30
2018-05-23T07:18:32.147Z,13.10
2018-05-23T07:21:00.371Z,13.77
2018-05-23T07:23:29.496Z,15.20
2018-05-23T07:25:57.833Z,12.80
2018-05-23T07:28:25.953Z,17.00
2018-05-23T07:30:54.207Z,15.97
2018-05-23T07:33:22.435Z,14.07
2018-05-23T07:35:50.667Z,19.67
2018-05-23T07:38:18.927Z,16.83
2018-05-23T07:40:47.919Z,17.13
2018-05-23T07:43:16.142Z,19.53
2018-05-23T07:45:44.481Z,20.17
2018-05-23T07:48:12.647Z,17.10
2018-05-23T07:50:41.637Z,18.80
2018-05-23T07:53:09.895Z,19.70
2018-05-23T07:55:38.114Z,15.30
2018-05-23T07:58:06.352Z,18.80
2018-05-23T08:00:34.607Z,17.63
2018-05-23T08:03:02.831Z,22.30
2018-05-23T08:05:31.060Z,16.20
2018-05-23T08:07:59.319Z,18.00
2018-05-23T08:10:27.554Z,15.77
2018-05-23T08:12:55.782Z,16.87
2018-05-23T08:15:24.047Z,16.83
2018-05-23T08:17:52.284Z,16.90
2018-05-23T08:20:20.515Z,15.67
2018-05-23T08:22:48.774Z,20.27
2018-05-23T08:25:17.003Z,13.23
2018-05-23T08:27:46.008Z,13.93
2018-05-23T08:30:14.263Z,13.10
2018-05-23T08:32:42.493Z,13.67
2018-05-23T08:35:10.712Z,15.43
2018-05-23T08:37:39.739Z,12.63
2018-05-23T08:40:07.963Z,14.13
2018-05-23T08:42:36.243Z,13.40
2018-05-23T08:45:04.491Z,13.23
2018-05-23T08:47:32.715Z,17.50
2018-05-23T08:50:01.807Z,17.23
2018-05-23T08:52:30.799Z,11.70
2018-05-23T08:54:59.028Z,11.63
2018-05-23T08:57:27.276Z,8.90
2018-05-23T08:59:55.499Z,10.50
2018-05-23T09:02:23.723Z,11.57
2018-05-23T09:04:52.024Z,11.57
2018-05-23T09:07:20.199Z,12.87
2018-05-23T09:09:48.425Z,11.30
2018-05-23T09:12:16.751Z,12.30
2018-05-23T09:14:44.875Z,10.73
2018-05-23T09:17:13.135Z,11.13
2018-05-23T09:19:41.372Z,11.80
2018-05-23T09:22:09.607Z,12.20
2018-05-23T09:24:37.855Z,14.70
2018-05-23T09:27:06.071Z,12.60
2018-05-23T09:29:34.296Z,10.47
2018-05-23T09:32:02.559Z,19.17
2018-05-23T09:34:30.791Z,16.07
2018-05-23T09:36:59.790Z,13.03
2018-05-23T09:39:28.020Z,16.03
2018-05-23T09:41:56.247Z,11.27
2018-05-23T09:44:25.255Z,10.80
2018-05-23T09:46:53.482Z,13.40
2018-05-23T09:49:21.703Z,14.43
2018-05-23T09:51:50.043Z,12.73
2018-05-23T09:54:18.275Z,20.30
2018-05-23T09:56:46.499Z,15.20
2018-05-23T09:59:14.759Z,15.10
2018-05-23T10:01:42.980Z,16.83
2018-05-23T10:04:11.212Z,20.07
2018-05-23T10:06:39.452Z,21.47
2018-05-23T10:09:07.680Z,17.60
2018-05-23T10:11:35.894Z,19.27
2018-05-23T10:14:04.161Z,16.77
2018-05-23T10:16:32.385Z,30.27
2018-05-23T10:19:00.611Z,20.87
2018-05-23T10:21:28.867Z,23.13
2018-05-23T10:23:57.863Z,16.30
2018-05-23T10:26:26.114Z,17.70
2018-05-23T10:28:54.380Z,15.90
2018-05-23T10:31:22.612Z,14.80
2018-05-23T10:33:50.843Z,18.23
2018-05-23T10:36:19.106Z,16.20
2018-05-23T10:38:47.339Z,15.63
2018-05-23T10:41:15.563Z,17.90
2018-05-23T10:43:43.815Z,18.47
2018-05-23T10:46:12.068Z,14.07
2018-05-23T10:48:41.050Z,18.40
2018-05-23T10:51:09.311Z,14.97
2018-05-23T10:53:37.539Z,28.33
2018-05-23T10:56:05.764Z,17.60
2018-05-23T10:58:34.784Z,11.80
2018-05-23T11:01:03.012Z,15.10
2018-05-23T11:03:31.241Z,24.37
2018-05-23T11:05:59.567Z,16.60
2018-05-23T11:08:27.736Z,14.50
2018-05-23T11:10:55.960Z,16.80
2018-05-23T11:13:24.198Z,16.90
2018-05-23T11:15:52.536Z,29.47
2018-05-23T11:18:20.764Z,17.30
2018-05-23T11:20:49.008Z,14.37
2018-05-23T11:23:17.242Z,17.30
2018-05-23T11:25:45.474Z,14.20
2018-05-23T11:28:13.735Z,13.67
2018-05-23T11:30:41.954Z,22.13
2018-05-23T11:33:10.187Z,15.57
2018-05-23T11:35:38.436Z,16.03
2018-05-23T11:38:06.660Z,16.50
2018-05-23T11:40:34.890Z,17.80
2018-05-23T11:43:03.146Z,15.60
2018-05-23T11:45:31.375Z,17.30
2018-05-23T11:47:59.599Z,13.67
2018-05-23T11:50:27.854Z,13.80
2018-05-23T11:52:56.852Z,14.47
2018-05-23T11:55:25.075Z,16.53
2018-05-23T11:57:53.326Z,13.37
2018-05-23T12:00:21.568Z,12.60
2018-05-23T12:02:50.558Z,14.27
2018-05-23T12:05:18.819Z,12.93
2018-05-23T12:07:47.051Z,15.03
2018-05-23T12:10:15.314Z,17.00
2018-05-23T12:12:43.523Z,15.10
2018-05-23T12:15:11.746Z,17.13
2018-05-23T12:17:39.975Z,13.27
2018-05-23T12:20:08.671Z,20.03
2018-05-23T12:22:36.902Z,18.33
2018-05-23T12:25:05.132Z,13.33
2018-05-23T12:27:33.387Z,13.47
2018-05-23T12:30:01.620Z,13.67
2018-05-23T12:32:29.843Z,15.03
2018-05-23T12:34:58.107Z,14.10
2018-05-23T12:37:26.339Z,14.87
2018-05-23T12:39:55.327Z,15.87
2018-05-23T12:42:23.568Z,13.03
2018-05-23T12:44:51.796Z,15.60
2018-05-23T12:47:20.046Z,12.60
2018-05-23T12:49:48.332Z,12.17
2018-05-23T12:52:17.322Z,14.53
2018-05-23T12:54:45.549Z,14.47
2018-05-23T12:57:13.795Z,16.90
2018-05-23T12:59:42.787Z,16.10
2018-05-23T13:02:11.012Z,14.67
2018-05-23T13:04:39.275Z,13.87
2018-05-23T13:07:07.500Z,11.80
2018-05-23T13:09:36.503Z,12.80
2018-05-23T13:12:04.759Z,12.60
2018-05-23T13:14:32.994Z,12.93
2018-05-23T13:17:01.611Z,14.83
2018-05-23T13:19:29.844Z,12.90
2018-05-23T13:21:58.066Z,12.80
2018-05-23T13:24:26.330Z,11.80
2018-05-23T13:26:54.561Z,14.23
2018-05-23T13:29:22.783Z,14.53
2018-05-23T13:31:51.054Z,11.97
2018-05-23T13:34:19.263Z,11.87
2018-05-23T13:36:47.491Z,12.23
2018-05-23T13:39:15.731Z,14.00
2018-05-23T13:41:43.960Z,15.93
2018-05-23T13:44:12.183Z,12.70
2018-05-23T13:46:40.448Z,13.00
2018-05-23T13:49:08.683Z,11.60
2018-05-23T13:51:36.908Z,15.80
2018-05-23T13:54:05.156Z,12.87
2018-05-23T13:56:33.374Z,10.87
2018-05-23T13:59:01.599Z,12.73
2018-05-23T14:01:29.855Z,11.13
2018-05-23T14:03:58.083Z,10.30
2018-05-23T14:06:26.306Z,12.40
2018-05-23T14:08:54.542Z,13.53
2018-05-23T14:11:22.762Z,9.60
2018-05-23T14:13:51.007Z,13.10
2018-05-23T14:16:19.240Z,10.90
2018-05-23T14:18:47.462Z,10.87
2018-05-23T14:21:15.727Z,11.33
2018-05-23T14:23:43.954Z,9.80
2018-05-23T14:26:12.182Z,11.13
2018-05-23T14:28:40.435Z,9.77
2018-05-23T14:31:09.423Z,9.70
2018-05-23T14:33:37.646Z,12.70
2018-05-23T14:36:05.903Z,11.37
2018-05-23T14:38:34.122Z,9.80
2018-05-23T14:41:02.349Z,10.20
2018-05-23T14:43:30.614Z,10.87
2018-05-23T14:45:58.830Z,11.17
2018-05-23T14:48:27.815Z,12.80
2018-05-23T14:50:56.055Z,10.27
2018-05-23T14:53:24.274Z,12.70
2018-05-23T14:55:52.530Z,11.50
2018-05-23T14:58:21.295Z,14.00
2018-05-23T15:00:49.523Z,11.70
2018-05-23T15:03:17.744Z,11.73
2018-05-23T15:05:46.767Z,11.23
2018-05-23T15:08:14.992Z,10.27
2018-05-23T15:10:43.216Z,11.00
2018-05-23T15:13:11.630Z,11.97
2018-05-23T15:15:39.857Z,13.43
2018-05-23T15:18:08.074Z,11.00
2018-05-23T15:20:36.326Z,10.73
2018-05-23T15:23:04.551Z,9.67
2018-05-23T15:25:32.776Z,10.43
2018-05-23T15:28:01.025Z,9.97
2018-05-23T15:30:30.020Z,11.60
2018-05-23T15:32:59.003Z,10.83
2018-05-23T15:35:27.378Z,10.53
2018-05-23T15:37:56.367Z,9.33
2018-05-23T15:40:24.588Z,11.20
2018-05-23T15:42:52.838Z,11.37
2018-05-23T15:45:21.815Z,13.30
2018-05-23T15:47:50.051Z,12.13
2018-05-23T15:50:18.604Z,9.57
2018-05-23T15:52:46.828Z,10.73
2018-05-23T15:55:15.051Z,12.03
2018-05-23T15:57:43.315Z,10.00
2018-05-23T16:00:12.300Z,9.57
2018-05-23T16:02:40.526Z,12.13
2018-05-23T16:05:08.788Z,11.00
2018-05-23T16:07:37.014Z,13.70
2018-05-23T16:10:05.244Z,10.63
2018-05-23T16:12:33.639Z,8.70
2018-05-23T16:15:01.840Z,13.43
2018-05-23T16:17:30.059Z,10.53
2018-05-23T16:19:58.492Z,10.63
2018-05-23T16:22:26.710Z,12.53
2018-05-23T16:24:54.942Z,11.33
2018-05-23T16:27:23.195Z,15.77
2018-05-23T16:29:51.412Z,9.50
2018-05-23T16:32:19.639Z,9.63
2018-05-23T16:34:47.900Z,11.67
2018-05-23T16:37:16.119Z,11.93
2018-05-23T16:39:44.346Z,11.27
2018-05-23T16:42:12.579Z,12.50
2018-05-23T16:44:40.790Z,9.23
2018-05-23T16:47:09.015Z,14.23
2018-05-23T16:49:37.257Z,16.23
2018-05-23T16:52:05.510Z,14.50
2018-05-23T16:54:33.716Z,13.80
2018-05-23T16:57:01.980Z,15.47
2018-05-23T16:59:30.233Z,12.20
2018-05-23T17:01:59.226Z,13.33
2018-05-23T17:04:27.711Z,11.50
2018-05-23T17:06:55.928Z,15.00
2018-05-23T17:09:24.156Z,12.40
2018-05-23T17:11:53.608Z,13.77
2018-05-23T17:14:21.827Z,12.30
2018-05-23T17:16:50.057Z,12.43
2018-05-23T17:19:18.311Z,13.60
2018-05-23T17:21:46.551Z,12.43
2018-05-23T17:24:14.773Z,17.63
2018-05-23T17:26:43.019Z,12.70
2018-05-23T17:29:11.247Z,13.40
2018-05-23T17:31:39.475Z,13.37
2018-05-23T17:34:07.739Z,15.00
2018-05-23T17:36:36.727Z,15.80
2018-05-23T17:39:04.959Z,16.63
2018-05-23T17:41:33.211Z,15.27
2018-05-23T17:44:01.441Z,17.67
2018-05-23T17:46:29.673Z,20.13
2018-05-23T17:48:57.910Z,13.93
2018-05-23T17:51:26.127Z,17.00
2018-05-23T17:53:54.382Z,16.03
2018-05-23T17:56:22.631Z,14.93
2018-05-23T17:58:51.618Z,16.63
2018-05-23T18:01:19.848Z,12.40
2018-05-23T18:03:48.107Z,15.07
2018-05-23T18:06:16.346Z,14.97
2018-05-23T18:08:44.573Z,12.97
2018-05-23T18:11:12.873Z,15.57
2018-05-23T18:13:41.070Z,13.00
2018-05-23T18:16:09.286Z,13.47
2018-05-23T18:18:37.543Z,11.97
2018-05-23T18:21:06.535Z,13.43
2018-05-23T18:23:34.871Z,16.17
2018-05-23T18:26:03.027Z,13.87
2018-05-23T18:28:31.289Z,13.73
2018-05-23T18:30:59.478Z,14.53
2018-05-23T18:33:27.709Z,11.77
2018-05-23T18:35:55.931Z,13.00
2018-05-23T18:38:24.179Z,13.33
2018-05-23T18:40:52.443Z,14.37
2018-05-23T18:43:21.481Z,13.30
2018-05-23T18:45:49.662Z,12.73
2018-05-23T18:48:17.935Z,12.10
2018-05-23T18:50:46.174Z,11.63
2018-05-23T18:53:15.162Z,13.80
2018-05-23T18:55:43.434Z,12.53
2018-05-23T18:58:11.667Z,12.50
2018-05-23T19:00:39.892Z,12.67
2018-05-23T19:03:08.928Z,14.20
2018-05-23T19:05:37.146Z,11.73
2018-05-23T19:08:05.379Z,11.27
2018-05-23T19:10:33.639Z,13.27
2018-05-23T19:13:01.871Z,11.50
2018-05-23T19:15:30.863Z,14.77
2018-05-23T19:17:59.127Z,13.07
2018-05-23T19:20:27.357Z,11.03
2018-05-23T19:22:55.591Z,13.90
2018-05-23T19:25:23.845Z,13.40
2018-05-23T19:27:52.064Z,12.83
2018-05-23T19:30:20.287Z,12.63
2018-05-23T19:32:48.544Z,30.17
2018-05-23T19:35:16.770Z,12.10
2018-05-23T19:37:44.994Z,13.90
2018-05-23T19:40:13.245Z,13.87
2018-05-23T19:42:41.471Z,13.30
2018-05-23T19:45:09.695Z,11.60
2018-05-23T19:47:37.967Z,12.53
2018-05-23T19:50:06.187Z,10.37
2018-05-23T19:52:34.523Z,12.87
2018-05-23T19:55:03.534Z,14.87
2018-05-23T19:57:31.762Z,11.77
2018-05-23T19:59:59.986Z,12.47
2018-05-23T20:02:28.247Z,12.33
2018-05-23T20:04:57.238Z,12.93
2018-05-23T20:07:25.465Z,12.03
2018-05-23T20:09:53.722Z,12.90
2018-05-23T20:12:21.952Z,12.70
2018-05-23T20:14:50.935Z,10.03
2018-05-23T20:17:19.630Z,11.30
2018-05-23T20:19:47.851Z,12.90
2018-05-23T20:22:16.080Z,13.27
2018-05-23T20:24:45.079Z,12.60
2018-05-23T20:27:13.299Z,17.00
2018-05-23T20:29:41.555Z,14.73
2018-05-23T20:32:09.812Z,19.43
2018-05-23T20:34:38.803Z,14.93
2018-05-23T20:37:07.036Z,13.03
2018-05-23T20:39:35.272Z,12.43
2018-05-23T20:42:03.503Z,12.63
2018-05-23T20:44:31.752Z,11.93
2018-05-23T20:46:59.972Z,12.70
2018-05-23T20:49:28.199Z,16.23
2018-05-23T20:51:56.460Z,15.27
2018-05-23T20:54:24.766Z,15.73
2018-05-23T20:56:52.916Z,14.57
2018-05-23T20:59:21.184Z,12.13
2018-05-23T21:01:49.408Z,13.13
2018-05-23T21:04:17.631Z,14.60
2018-05-23T21:06:45.889Z,14.77
2018-05-23T21:09:14.879Z,12.17
2018-05-23T21:11:43.107Z,16.53
2018-05-23T21:14:11.379Z,13.80
2018-05-23T21:16:39.607Z,12.90
2018-05-23T21:19:08.592Z,14.23
2018-05-23T21:21:36.853Z,14.20
2018-05-23T21:24:05.080Z,17.10
2018-05-23T21:26:33.303Z,15.57
2018-05-23T21:29:01.547Z,14.00
2018-05-23T21:31:29.779Z,17.47
2018-05-23T21:33:58.003Z,15.60
2018-05-23T21:36:26.267Z,15.43
2018-05-23T21:38:54.495Z,15.17
2018-05-23T21:41:22.716Z,15.40
2018-05-23T21:43:50.955Z,14.67
2018-05-23T21:46:19.183Z,16.50
2018-05-23T21:48:47.411Z,16.43
2018-05-23T21:51:16.451Z,19.80
2018-05-23T21:53:44.675Z,14.73
2018-05-23T21:56:13.127Z,16.30
2018-05-23T21:58:41.391Z,15.37
2018-05-23T22:01:13.445Z,19.20
2018-05-23T22:03:41.706Z,17.10
2018-05-23T22:06:09.932Z,14.53
2018-05-23T22:08:38.154Z,15.90
2018-05-23T22:11:06.417Z,15.50
2018-05-23T22:13:35.408Z,15.70
2018-05-23T22:16:03.632Z,15.90
2018-05-23T22:18:31.879Z,19.20
2018-05-23T22:21:00.099Z,18.40
2018-05-23T22:23:28.323Z,18.87
2018-05-23T22:25:56.586Z,17.67
2018-05-23T22:28:24.811Z,21.30
2018-05-23T22:30:53.039Z,18.77
2018-05-23T22:33:22.070Z,16.67
2018-05-23T22:35:50.300Z,17.07
2018-05-23T22:38:18.520Z,21.00
2018-05-23T22:40:46.784Z,19.57
2018-05-23T22:43:15.007Z,19.53
2018-05-23T22:45:43.240Z,19.17
2018-05-23T22:48:11.507Z,25.93
2018-05-23T22:50:39.736Z,39.70
2018-05-23T22:53:07.959Z,28.07
2018-05-23T22:55:36.222Z,34.13
2018-05-23T22:58:04.455Z,32.50
2018-05-23T23:00:32.679Z,25.73
2018-05-23T23:03:00.935Z,25.33
2018-05-23T23:05:29.180Z,28.27
2018-05-23T23:07:57.407Z,27.20
2018-05-23T23:10:25.639Z,29.93
2018-05-23T23:12:53.878Z,25.90
2018-05-23T23:15:22.100Z,28.53
2018-05-23T23:17:50.358Z,31.33
2018-05-23T23:20:18.583Z,30.93
2018-05-23T23:22:46.809Z,30.70
2018-05-23T23:25:15.061Z,31.13
2018-05-23T23:27:43.426Z,33.27
2018-05-23T23:30:11.515Z,28.40
2018-05-23T23:32:39.877Z,30.27
2018-05-23T23:35:08.115Z,32.67
2018-05-23T23:37:36.352Z,33.07
2018-05-23T23:40:04.629Z,29.67
2018-05-23T23:42:32.839Z,28.10
2018-05-23T23:45:01.059Z,29.67
2018-05-23T23:47:29.303Z,29.73
2018-05-23T23:49:57.532Z,28.60
2018-05-23T23:52:25.753Z,35.40
2018-05-23T23:54:54.799Z,40.43
2018-05-23T23:57:23.031Z,36.70
2018-05-23T23:59:51.259Z,31.67
